Time;durP1;ratioP1;P1;durP2;ratioP2;P2;SDS_P1;SDS_P2;PMS_P1;PMS_P2;Temp;Humidity;BMP_temperature;BMP_pressure;BME280_temperature;BME280_humidity;BME280_pressure;Samples;Min_cycle;Max_cycle;Signal;HPM_P1;HPM_P2
2021/03/31 00:01:19;;;;;;;92.82;47.55;;;;;;;;;;4957049;29;20031;-50
2021/03/31 00:03:45;;;;;;;97.47;48.42;;;;;;;;;;4956781;29;20046;-44
2021/03/31 00:06:11;;;;;;;91.10;44.97;;;;;;;;;;4956931;29;20035;-44
2021/03/31 00:08:38;;;;;;;97.28;47.97;;;;;;;;;;4956906;29;20387;-49
2021/03/31 00:11:05;;;;;;;90.05;46.13;;;;;;;;;;4956658;29;20061;-48
2021/03/31 00:13:33;;;;;;;76.22;42.80;;;;;;;;;;4956765;29;20035;-45
2021/03/31 00:16:00;;;;;;;78.75;43.03;;;;;;;;;;4956779;29;20061;-46
2021/03/31 00:18:26;;;;;;;91.65;47.05;;;;;;;;;;4956715;29;20029;-46
2021/03/31 00:20:53;;;;;;;92.15;48.85;;;;;;;;;;4956774;28;20023;-51
2021/03/31 00:23:22;;;;;;;90.70;46.97;;;;;;;;;;4956669;29;20023;-47
2021/03/31 00:25:48;;;;;;;89.53;44.67;;;;;;;;;;4956337;29;20047;-49
2021/03/31 00:28:14;;;;;;;98.85;48.10;;;;;;;;;;4956393;29;20127;-46
2021/03/31 00:30:41;;;;;;;93.85;48.42;;;;;;;;;;4955129;29;20126;-53
2021/03/31 00:33:07;;;;;;;82.55;43.92;;;;;;;;;;4956467;29;20503;-53
2021/03/31 00:35:33;;;;;;;94.55;49.92;;;;;;;;;;4956478;28;20039;-50
2021/03/31 00:37:59;;;;;;;84.32;44.78;;;;;;;;;;4956356;29;20024;-51
2021/03/31 00:40:28;;;;;;;88.13;47.83;;;;;;;;;;4956343;29;20034;-51
2021/03/31 00:42:54;;;;;;;81.32;43.13;;;;;;;;;;4956393;29;20046;-52
2021/03/31 00:45:20;;;;;;;77.22;43.80;;;;;;;;;;4956321;29;20383;-52
2021/03/31 00:47:46;;;;;;;81.80;45.00;;;;;;;;;;4956153;28;20185;-52
2021/03/31 00:50:16;;;;;;;77.75;43.20;;;;;;;;;;4972472;28;20047;-53
2021/03/31 00:52:43;;;;;;;86.68;44.35;;;;;;;;;;4974986;28;20018;-52
2021/03/31 00:55:10;;;;;;;73.80;42.22;;;;;;;;;;4974689;28;20015;-52
2021/03/31 00:57:37;;;;;;;72.40;43.28;;;;;;;;;;4975506;28;20027;-52
2021/03/31 01:00:04;;;;;;;78.85;43.97;;;;;;;;;;4975111;28;20096;-47
2021/03/31 01:02:30;;;;;;;81.70;44.80;;;;;;;;;;4974779;28;20057;-45
2021/03/31 01:04:56;;;;;;;77.63;42.63;;;;;;;;;;4974669;28;20022;-46
2021/03/31 01:07:22;;;;;;;79.57;44.08;;;;;;;;;;4974794;28;20467;-45
2021/03/31 01:09:49;;;;;;;84.05;45.28;;;;;;;;;;4974674;28;20049;-46
2021/03/31 01:12:20;;;;;;;78.93;44.85;;;;;;;;;;4974706;28;20063;-55
2021/03/31 01:14:46;;;;;;;77.70;44.35;;;;;;;;;;4974593;28;20030;-54
2021/03/31 01:17:17;;;;;;;91.53;48.22;;;;;;;;;;4972135;28;20098;-54
2021/03/31 01:19:46;;;;;;;92.97;51.70;;;;;;;;;;4974594;28;20015;-54
2021/03/31 01:22:22;;;;;;;88.72;48.92;;;;;;;;;;4972025;28;20391;-53
2021/03/31 01:24:48;;;;;;;80.97;47.33;;;;;;;;;;4974371;28;20023;-53
2021/03/31 01:27:19;;;;;;;79.13;45.22;;;;;;;;;;4974159;28;20051;-52
2021/03/31 01:29:45;;;;;;;83.15;46.95;;;;;;;;;;4974317;28;20039;-52
2021/03/31 01:32:30;;;;;;;84.35;47.35;;;;;;;;;;4974394;28;20087;-52
2021/03/31 01:34:57;;;;;;;87.85;50.65;;;;;;;;;;4972309;28;20019;-52
2021/03/31 01:37:28;;;;;;;82.75;47.22;;;;;;;;;;4974065;28;20051;-53
2021/03/31 01:39:55;;;;;;;85.03;46.30;;;;;;;;;;4974699;28;20041;-52
2021/03/31 01:42:22;;;;;;;88.20;48.05;;;;;;;;;;4974834;28;20019;-52
2021/03/31 01:44:50;;;;;;;86.95;48.70;;;;;;;;;;4974416;28;20092;-53
2021/03/31 01:47:18;;;;;;;80.70;46.35;;;;;;;;;;4974250;28;20414;-51
2021/03/31 01:49:44;;;;;;;89.03;47.05;;;;;;;;;;4974012;28;20022;-51
2021/03/31 01:52:16;;;;;;;85.53;48.67;;;;;;;;;;4971431;28;20038;-48
2021/03/31 01:54:42;;;;;;;;;;;;;;;;;;4979271;28;20030;-51
2021/03/31 01:57:08;;;;;;;89.20;49.10;;;;;;;;;;4983018;28;19918;-51
2021/03/31 01:59:35;;;;;;;92.55;49.80;;;;;;;;;;4976462;28;20446;-51
2021/03/31 02:02:02;;;;;;;90.40;48.72;;;;;;;;;;4977982;28;20113;-51
2021/03/31 02:04:30;;;;;;;89.88;47.53;;;;;;;;;;4974211;28;20039;-52
2021/03/31 02:06:56;;;;;;;83.93;45.63;;;;;;;;;;4974391;28;20030;-52
2021/03/31 02:09:23;;;;;;;79.90;42.47;;;;;;;;;;4974267;28;20031;-52
2021/03/31 02:11:49;;;;;;;74.75;42.78;;;;;;;;;;4977662;28;20057;-51
2021/03/31 02:14:20;;;;;;;71.60;39.38;;;;;;;;;;4978240;28;20023;-52
2021/03/31 02:16:46;;;;;;;65.63;37.40;;;;;;;;;;4978356;28;20447;-52
2021/03/31 02:19:18;;;;;;;66.00;36.78;;;;;;;;;;4978165;28;20054;-54
2021/03/31 02:21:44;;;;;;;71.40;37.97;;;;;;;;;;4978169;28;20031;-51
2021/03/31 02:24:15;;;;;;;74.20;37.15;;;;;;;;;;4978214;28;20026;-51
2021/03/31 02:26:42;;;;;;;72.95;37.55;;;;;;;;;;4977823;28;20051;-51
2021/03/31 02:29:09;;;;;;;76.32;37.38;;;;;;;;;;4978061;28;20372;-51
2021/03/31 02:31:36;;;;;;;62.10;36.13;;;;;;;;;;4978001;28;20034;-52
2021/03/31 02:34:03;;;;;;;76.18;40.08;;;;;;;;;;4977859;28;20077;-51
2021/03/31 02:36:30;;;;;;;73.72;40.78;;;;;;;;;;4977899;28;20151;-51
2021/03/31 02:38:57;;;;;;;72.80;41.85;;;;;;;;;;4978050;28;20383;-50
2021/03/31 02:41:23;;;;;;;68.38;38.47;;;;;;;;;;4977657;28;20113;-52
2021/03/31 02:43:50;;;;;;;60.08;37.28;;;;;;;;;;4977707;28;20106;-51
2021/03/31 02:46:18;;;;;;;66.10;35.63;;;;;;;;;;4976151;28;20372;-51
2021/03/31 02:48:45;;;;;;;65.85;36.83;;;;;;;;;;4977694;28;20467;-51
2021/03/31 02:51:12;;;;;;;70.03;37.95;;;;;;;;;;4977618;28;20222;-48
2021/03/31 02:53:39;;;;;;;73.55;35.55;;;;;;;;;;4977865;28;20101;-52
2021/03/31 02:56:05;;;;;;;69.65;35.28;;;;;;;;;;4977599;28;20029;-51
2021/03/31 02:58:32;;;;;;;72.30;34.75;;;;;;;;;;4977400;28;20031;-51
2021/03/31 03:00:59;;;;;;;75.45;36.55;;;;;;;;;;4977665;28;20038;-50
2021/03/31 03:03:26;;;;;;;68.45;38.03;;;;;;;;;;4977534;28;20018;-54
2021/03/31 03:05:54;;;;;;;72.75;38.03;;;;;;;;;;4977454;28;20027;-52
2021/03/31 03:08:20;;;;;;;67.22;35.17;;;;;;;;;;4977577;28;20082;-50
2021/03/31 03:10:46;;;;;;;63.80;34.38;;;;;;;;;;4977317;28;20066;-51
2021/03/31 03:13:13;;;;;;;73.20;37.08;;;;;;;;;;4977423;28;20044;-51
2021/03/31 03:15:39;;;;;;;65.63;35.60;;;;;;;;;;4977369;28;20382;-51
2021/03/31 03:18:05;;;;;;;67.88;34.88;;;;;;;;;;4977552;28;20371;-52
2021/03/31 03:20:38;;;;;;;61.50;34.08;;;;;;;;;;4977141;28;20467;-52
2021/03/31 03:23:05;;;;;;;66.53;35.35;;;;;;;;;;4976991;28;20387;-51
2021/03/31 03:25:32;;;;;;;66.18;34.83;;;;;;;;;;4977059;28;20030;-52
2021/03/31 03:27:58;;;;;;;57.70;34.15;;;;;;;;;;4977194;28;20039;-52
2021/03/31 03:30:28;;;;;;;69.55;33.75;;;;;;;;;;4976849;28;20055;-51
2021/03/31 03:32:54;;;;;;;65.63;34.55;;;;;;;;;;4976885;28;20048;-50
2021/03/31 03:35:25;;;;;;;65.78;34.28;;;;;;;;;;4977126;28;20069;-52
2021/03/31 03:37:54;;;;;;;68.30;34.65;;;;;;;;;;4977234;28;20054;-51
2021/03/31 03:40:25;;;;;;;69.20;35.85;;;;;;;;;;4977011;28;20057;-51
2021/03/31 03:42:51;;;;;;;57.05;35.13;;;;;;;;;;4976789;28;20085;-49
2021/03/31 03:45:18;;;;;;;68.97;34.13;;;;;;;;;;4976593;28;20050;-45
2021/03/31 03:47:44;;;;;;;71.20;38.22;;;;;;;;;;4976884;28;20019;-44
2021/03/31 03:50:13;;;;;;;79.82;40.65;;;;;;;;;;4976703;28;20042;-45
2021/03/31 03:52:39;;;;;;;80.07;42.97;;;;;;;;;;4976893;28;20166;-44
2021/03/31 03:55:06;;;;;;;77.95;41.90;;;;;;;;;;4976522;28;20027;-44
2021/03/31 03:57:32;;;;;;;71.53;41.15;;;;;;;;;;4976467;28;20039;-44
2021/03/31 03:59:58;;;;;;;80.38;41.55;;;;;;;;;;4976333;28;20031;-45
2021/03/31 04:02:25;;;;;;;68.78;39.70;;;;;;;;;;4976352;28;20030;-47
2021/03/31 04:04:53;;;;;;;74.22;41.05;;;;;;;;;;4976334;28;20073;-45
2021/03/31 04:07:19;;;;;;;83.65;42.20;;;;;;;;;;4976474;28;20403;-47
2021/03/31 04:09:49;;;;;;;82.20;41.47;;;;;;;;;;4976366;28;20030;-50
2021/03/31 04:12:17;;;;;;;81.82;44.35;;;;;;;;;;4976398;28;20154;-45
2021/03/31 04:14:44;;;;;;;81.65;44.05;;;;;;;;;;4975922;28;20027;-45
2021/03/31 04:17:15;;;;;;;81.80;45.67;;;;;;;;;;4976053;28;20033;-52
2021/03/31 04:19:42;;;;;;;68.88;39.22;;;;;;;;;;4976246;28;20027;-45
2021/03/31 04:22:10;;;;;;;66.78;37.42;;;;;;;;;;4976221;28;20368;-47
2021/03/31 04:24:36;;;;;;;61.30;33.85;;;;;;;;;;4976245;28;20027;-47
2021/03/31 04:27:02;;;;;;;109.80;55.03;;;;;;;;;;4975715;28;20059;-46
2021/03/31 04:29:29;;;;;;;70.75;35.03;;;;;;;;;;4975836;28;20747;-46
2021/03/31 04:31:55;;;;;;;140.65;90.63;;;;;;;;;;4976013;28;20043;-47
2021/03/31 04:34:22;;;;;;;85.85;42.67;;;;;;;;;;4975074;28;20023;-46
2021/03/31 04:36:48;;;;;;;121.72;67.60;;;;;;;;;;4975951;28;20026;-46
2021/03/31 04:39:17;;;;;;;61.85;35.30;;;;;;;;;;4975988;28;20046;-46
2021/03/31 04:41:43;;;;;;;135.10;63.45;;;;;;;;;;4975688;28;20030;-45
2021/03/31 04:44:10;;;;;;;140.38;69.53;;;;;;;;;;4975530;28;20031;-44
2021/03/31 04:46:36;;;;;;;56.00;29.55;;;;;;;;;;4974444;28;20029;-51
2021/03/31 04:49:03;;;;;;;57.72;30.08;;;;;;;;;;4975487;28;20026;-43
2021/03/31 04:51:29;;;;;;;50.65;27.40;;;;;;;;;;4975657;28;20030;-47
2021/03/31 04:53:55;;;;;;;49.63;27.63;;;;;;;;;;4975588;28;20364;-46
2021/03/31 04:56:21;;;;;;;51.97;29.02;;;;;;;;;;4975303;28;20027;-46
2021/03/31 04:58:47;;;;;;;56.10;30.88;;;;;;;;;;4975336;28;20106;-46
2021/03/31 05:01:13;;;;;;;59.40;32.88;;;;;;;;;;4975194;28;20118;-47
2021/03/31 05:03:39;;;;;;;72.75;34.45;;;;;;;;;;4975436;28;20039;-45
2021/03/31 05:06:08;;;;;;;51.65;29.30;;;;;;;;;;4975350;28;20023;-45
2021/03/31 05:08:34;;;;;;;56.55;29.58;;;;;;;;;;4975317;28;20034;-46
2021/03/31 05:11:00;;;;;;;64.00;33.92;;;;;;;;;;4975097;28;20080;-46
2021/03/31 05:13:26;;;;;;;65.82;36.58;;;;;;;;;;4975144;28;20038;-46
2021/03/31 05:15:52;;;;;;;68.68;39.40;;;;;;;;;;4974842;28;20073;-46
2021/03/31 05:18:18;;;;;;;69.65;37.83;;;;;;;;;;4975131;28;20493;-51
2021/03/31 05:20:44;;;;;;;63.15;33.67;;;;;;;;;;4975147;28;20069;-49
2021/03/31 05:23:10;;;;;;;70.68;34.13;;;;;;;;;;4975026;28;20022;-49
2021/03/31 05:25:37;;;;;;;75.10;34.00;;;;;;;;;;4974723;28;20117;-52
2021/03/31 05:28:04;;;;;;;77.95;31.25;;;;;;;;;;4975046;28;20113;-51
2021/03/31 05:30:30;;;;;;;66.78;29.48;;;;;;;;;;4974628;28;20039;-48
2021/03/31 05:32:58;;;;;;;63.15;29.23;;;;;;;;;;4975142;28;20030;-52
2021/03/31 05:35:24;;;;;;;50.22;23.50;;;;;;;;;;4974729;28;20068;-51
2021/03/31 05:37:50;;;;;;;38.45;21.70;;;;;;;;;;4974812;28;20058;-55
2021/03/31 05:40:16;;;;;;;42.65;22.05;;;;;;;;;;4974862;28;20114;-55
2021/03/31 05:42:42;;;;;;;40.63;22.65;;;;;;;;;;4974791;28;20510;-53
2021/03/31 05:45:09;;;;;;;34.13;21.27;;;;;;;;;;4974459;28;20114;-53
2021/03/31 05:47:37;;;;;;;41.08;21.50;;;;;;;;;;4974705;28;20034;-53
2021/03/31 05:50:10;;;;;;;40.83;19.75;;;;;;;;;;4974496;28;20074;-52
2021/03/31 05:52:36;;;;;;;40.95;19.73;;;;;;;;;;4974614;28;20030;-52
2021/03/31 05:55:03;;;;;;;36.67;21.20;;;;;;;;;;4974374;28;20065;-53
2021/03/31 05:57:33;;;;;;;36.70;20.27;;;;;;;;;;4974440;28;20074;-55
2021/03/31 06:00:01;;;;;;;33.00;20.52;;;;;;;;;;4974384;28;20035;-53
2021/03/31 06:02:28;;;;;;;42.65;22.42;;;;;;;;;;4974438;28;20122;-52
2021/03/31 06:04:54;;;;;;;47.78;22.60;;;;;;;;;;4974538;28;20027;-53
2021/03/31 06:07:20;;;;;;;47.92;23.52;;;;;;;;;;4974540;28;20031;-48
2021/03/31 06:10:07;;;;;;;49.58;24.20;;;;;;;;;;4974488;28;20106;-54
2021/03/31 06:12:34;;;;;;;48.05;24.95;;;;;;;;;;4974315;28;20034;-52
2021/03/31 06:15:11;;;;;;;49.30;26.27;;;;;;;;;;4974214;28;20109;-54
2021/03/31 06:17:50;;;;;;;47.53;24.40;;;;;;;;;;4974270;28;20027;-54
2021/03/31 06:20:35;;;;;;;50.20;24.92;;;;;;;;;;4974281;28;20113;-52
2021/03/31 06:28:34;;;;;;;44.38;22.65;;;;;;;;;;4933801;29;20386;-52
2021/03/31 06:31:06;;;;;;;28.88;16.10;;;;;;;;;;4933641;29;20082;-50
2021/03/31 06:33:33;;;;;;;29.15;15.48;;;;;;;;;;4933802;29;20031;-51
2021/03/31 06:35:59;;;;;;;24.17;14.68;;;;;;;;;;4933799;29;20028;-55
2021/03/31 06:38:29;;;;;;;24.15;14.73;;;;;;;;;;4933710;29;20490;-54
2021/03/31 06:41:00;;;;;;;29.40;16.33;;;;;;;;;;4933449;29;20032;-52
2021/03/31 06:43:30;;;;;;;27.83;13.93;;;;;;;;;;4933506;29;20039;-54
2021/03/31 06:46:06;;;;;;;25.08;14.00;;;;;;;;;;4933629;29;20110;-55
2021/03/31 06:48:34;;;;;;;28.95;13.18;;;;;;;;;;4933619;29;20037;-56
2021/03/31 06:51:00;;;;;;;25.90;12.65;;;;;;;;;;4933444;29;20103;-54
2021/03/31 06:53:27;;;;;;;24.73;12.50;;;;;;;;;;4933524;29;20473;-53
2021/03/31 06:56:03;;;;;;;23.90;13.50;;;;;;;;;;4933601;29;20051;-53
2021/03/31 06:58:30;;;;;;;24.70;12.93;;;;;;;;;;4936933;29;20429;-53
2021/03/31 07:00:56;;;;;;;24.13;13.88;;;;;;;;;;4937051;29;20055;-54
2021/03/31 07:03:22;;;;;;;19.58;11.93;;;;;;;;;;4936910;29;20075;-53
2021/03/31 07:05:48;;;;;;;23.30;12.30;;;;;;;;;;4961618;28;20077;-53
2021/03/31 07:08:16;;;;;;;19.80;12.25;;;;;;;;;;4975518;28;20479;-53
2021/03/31 07:10:43;;;;;;;27.20;16.23;;;;;;;;;;4976668;28;20085;-51
2021/03/31 07:13:10;;;;;;;31.65;15.32;;;;;;;;;;4977076;28;20031;-50
2021/03/31 07:15:36;;;;;;;50.55;23.58;;;;;;;;;;4976996;28;20116;-48
2021/03/31 07:18:02;;;;;;;63.88;34.92;;;;;;;;;;4977100;28;20030;-49
2021/03/31 07:20:33;;;;;;;62.85;33.28;;;;;;;;;;4975797;28;20031;-50
2021/03/31 07:23:00;;;;;;;57.50;31.38;;;;;;;;;;4977034;28;20015;-54
2021/03/31 07:25:26;;;;;;;54.63;27.75;;;;;;;;;;4976670;28;20034;-48
2021/03/31 07:27:55;;;;;;;60.67;31.88;;;;;;;;;;4976263;28;20057;-51
2021/03/31 07:30:22;;;;;;;41.85;21.73;;;;;;;;;;4975847;28;20462;-50
2021/03/31 07:32:53;;;;;;;46.97;23.65;;;;;;;;;;4976959;28;20109;-51
2021/03/31 07:35:21;;;;;;;26.17;14.43;;;;;;;;;;4976787;28;20023;-50
2021/03/31 07:37:47;;;;;;;52.65;32.75;;;;;;;;;;4976626;28;20396;-48
2021/03/31 07:40:14;;;;;;;44.92;23.98;;;;;;;;;;4976541;28;20390;-48
2021/03/31 07:42:53;;;;;;;48.78;27.58;;;;;;;;;;4976492;28;20490;-49
2021/03/31 07:45:23;;;;;;;50.35;26.90;;;;;;;;;;4976557;28;20487;-48
2021/03/31 07:47:50;;;;;;;47.50;24.30;;;;;;;;;;4976672;28;20027;-49
2021/03/31 07:50:16;;;;;;;50.60;26.58;;;;;;;;;;4976585;28;20034;-47
2021/03/31 07:53:02;;;;;;;21.92;12.95;;;;;;;;;;4976457;28;20038;-47
2021/03/31 07:55:39;;;;;;;47.40;28.83;;;;;;;;;;4976198;28;20486;-51
2021/03/31 07:58:14;;;;;;;37.75;20.73;;;;;;;;;;4976145;28;20488;-45
2021/03/31 08:00:54;;;;;;;58.40;31.30;;;;;;;;;;4958954;28;20090;-51
2021/03/31 08:03:21;;;;;;;40.65;24.45;;;;;;;;;;4968513;28;20046;-53
2021/03/31 08:06:03;;;;;;;27.15;15.10;;;;;;;;;;4976245;28;20066;-52
2021/03/31 08:08:29;;;;;;;69.47;17.60;;;;;;;;;;4975240;28;20479;-52
2021/03/31 08:10:59;;;;;;;74.68;24.77;;;;;;;;;;4976178;28;20039;-52
2021/03/31 08:13:26;;;;;;;100.50;30.17;;;;;;;;;;4976122;28;20466;-50
2021/03/31 08:15:52;;;;;;;39.92;13.05;;;;;;;;;;4976106;28;20085;-51
2021/03/31 08:18:18;;;;;;;42.22;14.07;;;;;;;;;;4976277;28;20422;-48
2021/03/31 08:20:45;;;;;;;35.38;13.60;;;;;;;;;;4976098;28;20487;-48
2021/03/31 08:23:11;;;;;;;34.67;14.00;;;;;;;;;;4976197;28;20022;-53
2021/03/31 08:25:39;;;;;;;15.70;9.13;;;;;;;;;;4975924;28;20042;-51
2021/03/31 08:28:07;;;;;;;19.77;8.40;;;;;;;;;;4975855;28;20045;-52
2021/03/31 08:30:38;;;;;;;16.63;9.63;;;;;;;;;;4975801;28;20042;-52
2021/03/31 08:33:05;;;;;;;15.02;7.18;;;;;;;;;;4975351;28;20065;-50
2021/03/31 08:35:31;;;;;;;15.43;7.93;;;;;;;;;;4975690;28;20054;-52
2021/03/31 08:37:58;;;;;;;24.60;12.55;;;;;;;;;;4975718;28;20025;-53
2021/03/31 08:40:32;;;;;;;26.95;10.00;;;;;;;;;;4975680;28;20030;-53
2021/03/31 08:43:01;;;;;;;19.08;8.85;;;;;;;;;;4958366;28;20556;-50
2021/03/31 08:45:37;;;;;;;8.65;6.70;;;;;;;;;;4975687;28;20097;-51
2021/03/31 08:48:03;;;;;;;17.13;9.18;;;;;;;;;;4975385;28;20502;-52
2021/03/31 08:50:33;;;;;;;34.42;20.33;;;;;;;;;;4975395;28;20491;-50
2021/03/31 08:53:00;;;;;;;41.78;24.25;;;;;;;;;;4975398;28;20037;-51
2021/03/31 08:55:29;;;;;;;29.40;17.38;;;;;;;;;;4975319;28;20498;-52
2021/03/31 08:57:55;;;;;;;49.20;29.42;;;;;;;;;;4975306;28;20035;-52
2021/03/31 09:00:22;;;;;;;54.83;34.47;;;;;;;;;;4975274;28;20027;-50
2021/03/31 09:02:50;;;;;;;78.25;47.58;;;;;;;;;;4975213;28;20042;-54
2021/03/31 09:05:16;;;;;;;12.75;7.15;;;;;;;;;;4975210;28;20499;-50
2021/03/31 09:07:42;;;;;;;40.78;25.70;;;;;;;;;;4975212;28;20035;-53
2021/03/31 09:10:12;;;;;;;68.45;41.90;;;;;;;;;;4975022;28;20041;-50
2021/03/31 09:12:38;;;;;;;25.33;15.35;;;;;;;;;;4975460;28;20492;-48
2021/03/31 09:15:05;;;;;;;39.35;23.55;;;;;;;;;;4975017;28;20023;-51
2021/03/31 09:17:32;;;;;;;41.65;23.75;;;;;;;;;;4975093;28;20035;-49
2021/03/31 09:20:04;;;;;;;48.95;29.25;;;;;;;;;;4974794;28;20030;-53
2021/03/31 09:22:31;;;;;;;19.00;10.50;;;;;;;;;;4974855;28;20038;-50
2021/03/31 09:25:14;;;;;;;33.42;16.50;;;;;;;;;;4974685;28;20027;-51
2021/03/31 09:27:40;;;;;;;28.92;15.73;;;;;;;;;;4974680;28;20499;-52
2021/03/31 09:30:13;;;;;;;27.55;13.55;;;;;;;;;;4974928;28;20023;-51
2021/03/31 09:35:16;;;;;;;19.40;11.25;;;;;;;;;;4974644;28;20062;-54
2021/03/31 09:37:42;;;;;;;36.00;23.83;;;;;;;;;;4974791;28;20035;-49
2021/03/31 09:40:10;;;;;;;65.32;38.45;;;;;;;;;;4974767;28;20542;-49
2021/03/31 09:42:38;;;;;;;39.78;27.08;;;;;;;;;;4974665;28;20151;-49
2021/03/31 09:45:07;;;;;;;34.75;19.35;;;;;;;;;;4974521;28;20055;-46
2021/03/31 09:47:35;;;;;;;35.17;21.85;;;;;;;;;;4974493;28;20475;-49
2021/03/31 09:50:10;;;;;;;55.55;35.20;;;;;;;;;;4974122;28;20438;-60
2021/03/31 09:52:36;;;;;;;22.27;14.30;;;;;;;;;;4973646;28;20086;-48
2021/03/31 09:55:04;;;;;;;27.90;16.25;;;;;;;;;;4969738;28;20105;-49
2021/03/31 09:57:31;;;;;;;20.33;12.07;;;;;;;;;;4970630;28;20035;-47
2021/03/31 10:00:23;;;;;;;29.27;17.40;;;;;;;;;;4971487;28;20033;-48
2021/03/31 10:02:50;;;;;;;28.30;15.60;;;;;;;;;;4960808;28;20062;-52
2021/03/31 10:05:24;;;;;;;35.55;20.60;;;;;;;;;;4973038;28;20538;-53
2021/03/31 10:07:59;;;;;;;76.90;45.83;;;;;;;;;;4971418;28;20034;-49
2021/03/31 10:10:41;;;;;;;44.53;23.90;;;;;;;;;;4970259;28;20059;-47
2021/03/31 10:13:07;;;;;;;14.93;7.40;;;;;;;;;;4970527;28;20037;-47
2021/03/31 10:15:33;;;;;;;25.63;14.57;;;;;;;;;;4972600;28;20094;-48
2021/03/31 10:17:59;;;;;;;99.32;56.65;;;;;;;;;;4974046;28;20084;-48
2021/03/31 10:20:30;;;;;;;20.17;12.60;;;;;;;;;;4974223;28;20471;-45
2021/03/31 10:22:56;;;;;;;38.92;21.27;;;;;;;;;;4974324;28;20031;-46
2021/03/31 10:25:26;;;;;;;19.30;11.02;;;;;;;;;;4973893;28;20034;-46
2021/03/31 10:27:52;;;;;;;13.20;8.43;;;;;;;;;;4974128;28;20357;-48
2021/03/31 10:30:32;;;;;;;21.20;10.23;;;;;;;;;;4974170;28;20034;-48
2021/03/31 10:32:58;;;;;;;12.10;7.03;;;;;;;;;;4977287;28;20026;-50
2021/03/31 10:35:43;;;;;;;46.63;27.27;;;;;;;;;;4978032;28;20394;-48
2021/03/31 10:38:17;;;;;;;43.38;24.67;;;;;;;;;;4977838;28;20054;-50
2021/03/31 10:41:21;;;;;;;46.60;27.52;;;;;;;;;;4977870;28;20387;-55
2021/03/31 10:52:04;;;;;;;44.50;25.45;;;;;;;;;;4977548;28;20045;-52
2021/03/31 10:54:30;;;;;;;137.63;82.88;;;;;;;;;;4977603;28;20021;-50
2021/03/31 10:57:08;;;;;;;45.33;25.48;;;;;;;;;;4977361;28;20054;-48
2021/03/31 10:59:34;;;;;;;61.22;32.40;;;;;;;;;;4977522;28;20035;-51
2021/03/31 11:02:01;;;;;;;164.55;92.18;;;;;;;;;;4977282;28;20030;-48
2021/03/31 11:04:27;;;;;;;33.83;20.88;;;;;;;;;;4977327;28;20034;-49
2021/03/31 11:06:53;;;;;;;120.35;67.78;;;;;;;;;;4977334;28;20514;-48
2021/03/31 11:09:20;;;;;;;52.70;25.63;;;;;;;;;;4977586;28;20027;-50
2021/03/31 11:11:46;;;;;;;148.25;81.13;;;;;;;;;;4975976;28;20403;-50
2021/03/31 11:14:16;;;;;;;124.00;68.35;;;;;;;;;;4977347;28;20118;-49
2021/03/31 11:16:52;;;;;;;37.73;18.80;;;;;;;;;;4977319;28;20027;-48
2021/03/31 11:27:35;;;;;;;108.38;57.53;;;;;;;;;;4976965;28;20074;-54
2021/03/31 11:30:03;;;;;;;113.07;62.25;;;;;;;;;;4977191;28;20031;-50
2021/03/31 11:32:29;;;;;;;103.25;51.83;;;;;;;;;;4976851;28;20027;-49
2021/03/31 11:34:55;;;;;;;127.35;70.13;;;;;;;;;;4976875;28;20383;-54
2021/03/31 11:37:21;;;;;;;54.92;29.40;;;;;;;;;;4976803;28;20038;-53
2021/03/31 11:39:47;;;;;;;115.88;61.67;;;;;;;;;;4976840;28;20179;-50
2021/03/31 11:42:13;;;;;;;98.60;54.05;;;;;;;;;;4976632;28;20022;-51
2021/03/31 11:44:40;;;;;;;52.30;30.15;;;;;;;;;;4976745;28;20475;-49
2021/03/31 11:47:06;;;;;;;230.35;153.52;;;;;;;;;;4975295;28;20468;-52
2021/03/31 11:49:32;;;;;;;202.90;110.72;;;;;;;;;;4975380;28;20033;-51
2021/03/31 11:51:58;;;;;;;102.82;58.50;;;;;;;;;;4975468;28;20031;-53
2021/03/31 11:54:24;;;;;;;226.68;120.95;;;;;;;;;;4975569;28;20030;-52
2021/03/31 11:56:50;;;;;;;21.20;9.05;;;;;;;;;;4975010;28;20073;-50
2021/03/31 11:59:16;;;;;;;100.78;53.50;;;;;;;;;;4975424;28;20098;-49
2021/03/31 12:01:42;;;;;;;54.80;26.90;;;;;;;;;;4976387;28;20030;-50
2021/03/31 12:04:08;;;;;;;136.73;70.28;;;;;;;;;;4976163;28;20053;-51
2021/03/31 12:06:35;;;;;;;68.32;35.92;;;;;;;;;;4975944;28;20022;-51
2021/03/31 12:09:01;;;;;;;90.00;42.75;;;;;;;;;;4975564;28;20535;-52
2021/03/31 12:11:27;;;;;;;53.45;28.75;;;;;;;;;;4955630;28;20039;-54
2021/03/31 12:13:53;;;;;;;49.22;28.17;;;;;;;;;;4975623;28;20023;-53
2021/03/31 12:16:19;;;;;;;6.60;4.60;;;;;;;;;;4975643;28;20485;-50
2021/03/31 12:18:45;;;;;;;9.00;4.10;;;;;;;;;;4975935;28;20027;-49
2021/03/31 12:21:11;;;;;;;8.48;4.53;;;;;;;;;;4975951;28;20062;-50
2021/03/31 12:23:38;;;;;;;6.80;4.07;;;;;;;;;;4976001;28;20027;-56
2021/03/31 12:26:05;;;;;;;9.50;4.13;;;;;;;;;;4975665;28;20106;-54
2021/03/31 12:28:34;;;;;;;81.97;42.78;;;;;;;;;;4972840;28;20526;-51
2021/03/31 12:31:00;;;;;;;61.75;24.33;;;;;;;;;;4947379;28;20043;-53
2021/03/31 12:33:26;;;;;;;39.45;16.02;;;;;;;;;;4945604;28;20019;-51
2021/03/31 12:35:52;;;;;;;32.20;13.30;;;;;;;;;;4945724;28;20030;-50
2021/03/31 12:38:20;;;;;;;29.90;15.63;;;;;;;;;;4945788;28;20059;-49
2021/03/31 12:40:47;;;;;;;62.05;27.48;;;;;;;;;;4945689;28;20027;-46
2021/03/31 12:43:13;;;;;;;27.08;12.00;;;;;;;;;;4946504;28;20872;-50
2021/03/31 12:45:39;;;;;;;23.65;11.23;;;;;;;;;;4945578;28;20026;-55
2021/03/31 12:48:06;;;;;;;30.48;18.48;;;;;;;;;;4946991;28;20481;-49
2021/03/31 12:50:34;;;;;;;20.60;9.75;;;;;;;;;;4945305;28;20035;-54
2021/03/31 12:53:15;;;;;;;73.85;44.67;;;;;;;;;;4945135;28;20035;-49
2021/03/31 12:55:46;;;;;;;61.50;33.88;;;;;;;;;;4944968;28;20031;-49
2021/03/31 12:58:18;;;;;;;52.55;28.63;;;;;;;;;;4945624;28;20492;-49
2021/03/31 13:00:45;;;;;;;29.17;16.25;;;;;;;;;;4946542;28;20019;-48
2021/03/31 13:03:11;;;;;;;68.07;47.28;;;;;;;;;;4944923;28;20085;-51
2021/03/31 13:05:39;;;;;;;59.80;34.67;;;;;;;;;;4945385;28;20030;-51
2021/03/31 13:08:10;;;;;;;96.38;58.45;;;;;;;;;;4945089;28;20039;-49
2021/03/31 13:10:37;;;;;;;36.80;22.75;;;;;;;;;;4944959;28;20026;-48
2021/03/31 13:15:39;;;;;;;32.05;19.70;;;;;;;;;;4945070;28;20054;-51
2021/03/31 13:26:25;;;;;;;16.10;10.38;;;;;;;;;;4944786;28;20050;-49
2021/03/31 13:31:38;;;;;;;37.85;23.10;;;;;;;;;;4944532;28;20047;-47
2021/03/31 13:34:08;;;;;;;71.38;44.08;;;;;;;;;;4944792;28;20514;-52
2021/03/31 13:39:28;;;;;;;61.50;36.28;;;;;;;;;;4883787;29;20040;-54
2021/03/31 13:41:54;;;;;;;79.65;49.10;;;;;;;;;;4883579;29;20159;-51
2021/03/31 13:44:23;;;;;;;50.55;32.47;;;;;;;;;;4883629;29;20051;-50
2021/03/31 13:46:52;;;;;;;36.28;23.45;;;;;;;;;;4869879;29;20063;-56
2021/03/31 13:49:40;;;;;;;49.05;31.58;;;;;;;;;;4884982;29;20071;-50
2021/03/31 13:52:10;;;;;;;36.22;20.20;;;;;;;;;;4885021;29;20051;-53
2021/03/31 13:54:51;;;;;;;18.02;12.32;;;;;;;;;;4883461;29;20029;-50
2021/03/31 13:57:22;;;;;;;25.73;15.02;;;;;;;;;;4884491;29;20060;-53
2021/03/31 13:59:48;;;;;;;19.67;8.63;;;;;;;;;;4885054;29;20116;-49
2021/03/31 14:02:15;;;;;;;25.23;11.52;;;;;;;;;;4883647;29;20041;-49
2021/03/31 14:04:41;;;;;;;46.35;29.65;;;;;;;;;;4884396;29;20151;-47
2021/03/31 14:07:07;;;;;;;20.77;10.57;;;;;;;;;;4885229;29;20859;-52
2021/03/31 14:09:34;;;;;;;54.13;32.22;;;;;;;;;;4887203;29;20226;-49
2021/03/31 14:12:01;;;;;;;40.47;22.67;;;;;;;;;;4887463;29;20306;-50
2021/03/31 14:14:28;;;;;;;44.58;22.83;;;;;;;;;;4888596;29;20132;-48
2021/03/31 14:19:29;;;;;;;11.35;5.93;;;;;;;;;;4956863;28;20026;-49
2021/03/31 14:21:56;;;;;;;17.38;10.18;;;;;;;;;;4956324;28;20132;-48
2021/03/31 14:24:22;;;;;;;13.93;7.10;;;;;;;;;;4949842;28;20126;-52
2021/03/31 14:26:48;;;;;;;62.72;40.97;;;;;;;;;;4955057;28;20059;-50
2021/03/31 14:29:14;;;;;;;89.78;57.35;;;;;;;;;;4955432;28;20182;-50
2021/03/31 14:31:40;;;;;;;27.15;18.33;;;;;;;;;;4950046;28;20745;-51
2021/03/31 14:34:06;;;;;;;117.72;79.65;;;;;;;;;;4940247;28;20554;-49
2021/03/31 14:36:37;;;;;;;82.90;56.65;;;;;;;;;;4957317;28;20031;-47
2021/03/31 14:39:12;;;;;;;82.35;56.42;;;;;;;;;;4952495;28;20362;-50
2021/03/31 14:41:38;;;;;;;93.38;62.58;;;;;;;;;;4954055;28;20042;-50
2021/03/31 14:44:04;;;;;;;190.32;126.32;;;;;;;;;;4948945;28;20027;-51
2021/03/31 14:46:30;;;;;;;223.40;146.65;;;;;;;;;;4947872;28;20023;-51
2021/03/31 14:48:57;;;;;;;200.68;134.95;;;;;;;;;;4948946;28;21045;-49
2021/03/31 14:51:29;;;;;;;72.68;47.75;;;;;;;;;;4948003;28;20070;-53
2021/03/31 14:56:48;;;;;;;628.88;516.85;;;;;;;;;;4947591;28;20093;-53
2021/03/31 15:01:58;;;;;;;93.45;54.72;;;;;;;;;;4949757;28;20524;-57
2021/03/31 15:04:24;;;;;;;69.57;42.67;;;;;;;;;;4953358;28;20063;-49
2021/03/31 15:06:50;;;;;;;123.25;76.88;;;;;;;;;;4956069;28;20030;-45
2021/03/31 15:09:17;;;;;;;69.55;41.08;;;;;;;;;;4949041;28;20031;-50
2021/03/31 15:11:43;;;;;;;31.50;21.00;;;;;;;;;;4947193;28;20043;-50